createdAt,value
2022-10-31T00:00:36.124Z,5.000000
2022-10-31T00:05:18.417Z,5.666667
2022-10-31T00:10:21.223Z,6.000000
2022-10-31T00:15:25.646Z,9.571429
2022-10-31T00:20:29.221Z,11.000000
2022-10-31T00:25:32.789Z,9.666667
2022-10-31T00:30:16.618Z,9.000000
2022-10-31T00:35:20.254Z,7.533333
2022-10-31T00:40:23.650Z,7.000000
2022-10-31T00:45:26.405Z,7.666667
2022-10-31T00:50:29.221Z,8.000000
2022-10-31T00:55:32.712Z,8.000000
2022-10-31T01:00:37.058Z,8.000000
2022-10-31T01:05:18.264Z,8.666667
2022-10-31T01:10:21.134Z,9.000000
2022-10-31T01:15:24.393Z,8.333333
2022-10-31T01:20:27.659Z,8.000000
2022-10-31T01:25:30.089Z,13.333333
2022-10-31T01:30:31.257Z,16.000000
2022-10-31T01:35:34.547Z,18.666667
2022-10-31T01:40:17.277Z,20.000000
2022-10-31T01:45:20.100Z,10.466667
2022-10-31T01:50:24.223Z,7.000000
2022-10-31T01:55:29.992Z,8.333333
2022-10-31T02:00:31.102Z,9.000000
2022-10-31T02:05:35.017Z,13.000000
2022-10-31T02:10:17.450Z,15.000000
2022-10-31T02:15:20.272Z,12.800000
2022-10-31T02:20:22.611Z,12.000000
2022-10-31T02:25:25.518Z,18.666667
2022-10-31T02:30:28.721Z,22.000000
2022-10-31T02:35:31.629Z,20.000000
2022-10-31T02:40:34.651Z,19.000000
2022-10-31T02:45:18.506Z,16.333333
2022-10-31T02:50:23.462Z,15.000000
2022-10-31T02:55:25.676Z,21.666667
2022-10-31T03:00:29.105Z,25.000000
2022-10-31T03:05:34.884Z,55.666667
2022-10-31T03:10:15.928Z,71.000000
2022-10-31T03:15:19.208Z,69.000000
2022-10-31T03:20:23.266Z,68.000000
2022-10-31T03:25:25.426Z,54.000000
2022-10-31T03:30:28.071Z,47.000000
2022-10-31T03:35:32.503Z,55.000000
2022-10-31T03:40:34.830Z,59.000000
2022-10-31T03:45:17.705Z,60.333333
2022-10-31T03:50:28.193Z,61.000000
2022-10-31T03:55:31.265Z,52.333333
2022-10-31T04:00:35.813Z,48.000000
2022-10-31T04:05:18.176Z,36.666667
2022-10-31T04:10:20.565Z,31.000000
2022-10-31T04:15:23.967Z,26.714286
2022-10-31T04:20:27.116Z,25.000000
2022-10-31T04:25:31.406Z,28.333333
2022-10-31T04:30:34.400Z,30.000000
2022-10-31T04:35:17.280Z,29.333333
2022-10-31T04:40:20.442Z,29.000000
2022-10-31T04:45:24.704Z,24.000000
2022-10-31T04:50:27.014Z,22.000000
2022-10-31T04:55:30.299Z,18.666667
2022-10-31T05:00:33.708Z,17.000000
2022-10-31T05:05:17.188Z,15.666667
2022-10-31T05:10:20.059Z,15.000000
2022-10-31T05:15:21.753Z,12.066667
2022-10-31T05:20:24.192Z,11.000000
2022-10-31T05:25:27.220Z,13.666667
2022-10-31T05:30:31.143Z,15.000000
2022-10-31T05:35:34.203Z,13.666667
2022-10-31T05:40:17.199Z,13.000000
2022-10-31T05:45:20.207Z,15.200000
2022-10-31T05:50:23.624Z,16.000000
2022-10-31T05:55:26.192Z,14.000000
2022-10-31T06:00:29.419Z,13.000000
2022-10-31T06:05:35.449Z,13.666667
2022-10-31T06:10:36.724Z,14.000000
2022-10-31T06:15:23.790Z,12.666667
2022-10-31T06:20:21.466Z,12.000000
2022-10-31T06:25:24.940Z,14.142857
2022-10-31T06:30:28.783Z,15.000000
2022-10-31T06:35:31.802Z,13.000000
2022-10-31T06:40:34.508Z,12.000000
2022-10-31T06:45:17.424Z,14.000000
2022-10-31T06:50:22.088Z,15.000000
2022-10-31T06:55:25.575Z,13.571429
2022-10-31T07:00:28.129Z,13.000000
2022-10-31T07:05:30.764Z,13.666667
2022-10-31T07:10:39.079Z,14.000000
2022-10-31T07:15:16.596Z,14.000000
2022-10-31T07:20:20.809Z,14.000000
2022-10-31T07:25:28.940Z,16.857143
2022-10-31T07:30:32.731Z,18.000000
2022-10-31T07:35:38.111Z,17.333333
2022-10-31T07:40:18.514Z,17.000000
2022-10-31T07:45:21.305Z,18.466667
2022-10-31T07:50:23.891Z,19.000000
2022-10-31T07:55:27.129Z,14.333333
2022-10-31T08:00:30.163Z,12.000000
2022-10-31T08:05:33.451Z,11.333333
2022-10-31T08:10:17.132Z,11.000000
2022-10-31T08:15:20.513Z,11.000000
2022-10-31T08:20:24.109Z,11.000000
2022-10-31T08:25:25.753Z,9.666667
2022-10-31T08:30:28.525Z,9.000000
2022-10-31T08:35:33.195Z,9.000000
2022-10-31T08:40:35.292Z,9.000000
2022-10-31T08:45:16.974Z,9.000000
2022-10-31T08:50:19.620Z,9.000000
2022-10-31T08:55:22.280Z,11.857143
2022-10-31T09:00:25.092Z,13.000000
2022-10-31T09:05:27.832Z,11.666667
2022-10-31T09:10:30.430Z,11.000000
2022-10-31T09:15:34.245Z,10.333333
2022-10-31T09:20:16.768Z,10.000000
2022-10-31T09:25:20.389Z,19.533333
2022-10-31T09:30:23.660Z,23.000000
2022-10-31T09:35:27.777Z,23.000000
2022-10-31T09:40:29.226Z,23.000000
2022-10-31T09:45:32.746Z,15.000000
2022-10-31T09:50:35.776Z,11.000000
2022-10-31T09:55:20.298Z,13.000000
2022-10-31T10:00:24.268Z,14.000000
2022-10-31T10:05:27.490Z,11.333333
2022-10-31T10:10:30.772Z,10.000000
2022-10-31T10:15:33.648Z,10.666667
2022-10-31T10:20:19.824Z,11.000000
2022-10-31T10:25:19.122Z,11.666667
2022-10-31T10:30:22.099Z,12.000000
2022-10-31T10:35:24.728Z,10.666667
2022-10-31T10:40:27.641Z,10.000000
2022-10-31T10:45:32.188Z,11.333333
2022-10-31T10:50:34.397Z,12.000000
2022-10-31T10:55:17.342Z,11.333333
2022-10-31T11:00:20.423Z,11.000000
2022-10-31T11:05:22.953Z,11.000000
2022-10-31T11:10:26.448Z,11.000000
2022-10-31T11:15:29.432Z,10.333333
2022-10-31T11:20:33.066Z,10.000000
2022-10-31T11:25:38.325Z,12.000000
2022-10-31T11:30:18.697Z,13.000000
2022-10-31T11:35:21.737Z,11.533333
2022-10-31T11:40:24.599Z,11.000000
2022-10-31T11:45:28.641Z,12.333333
2022-10-31T11:50:32.521Z,13.000000
2022-10-31T11:55:35.032Z,12.333333
2022-10-31T12:00:17.301Z,12.000000
2022-10-31T12:05:20.515Z,12.666667
2022-10-31T12:10:23.730Z,13.000000
2022-10-31T12:15:26.798Z,13.666667
2022-10-31T12:20:31.290Z,14.000000
2022-10-31T12:25:34.227Z,13.333333
2022-10-31T12:30:37.778Z,13.000000
2022-10-31T12:35:18.606Z,15.000000
2022-10-31T12:40:21.604Z,16.000000
2022-10-31T12:45:26.750Z,13.142857
2022-10-31T12:50:28.345Z,12.000000
2022-10-31T12:55:30.846Z,12.666667
2022-10-31T13:00:33.597Z,13.000000
2022-10-31T13:05:16.057Z,12.333333
2022-10-31T13:10:18.958Z,12.000000
2022-10-31T13:15:22.748Z,11.266667
2022-10-31T13:20:24.638Z,11.000000
2022-10-31T13:25:27.904Z,13.666667
2022-10-31T13:30:31.236Z,15.000000
2022-10-31T13:35:34.868Z,15.666667
2022-10-31T13:40:18.080Z,16.000000
2022-10-31T13:45:21.210Z,13.066667
2022-10-31T13:50:24.071Z,12.000000
2022-10-31T13:55:27.005Z,12.000000
2022-10-31T14:00:31.024Z,12.000000
2022-10-31T14:05:32.967Z,11.333333
2022-10-31T14:10:16.748Z,11.000000
2022-10-31T14:15:20.278Z,13.000000
2022-10-31T14:20:23.219Z,14.000000
2022-10-31T14:25:26.276Z,14.000000
2022-10-31T14:30:29.185Z,14.000000
2022-10-31T14:35:31.978Z,16.000000
2022-10-31T14:40:35.409Z,17.000000
2022-10-31T14:45:18.539Z,17.666667
2022-10-31T14:50:20.359Z,18.000000
2022-10-31T14:55:23.168Z,20.142857
2022-10-31T15:00:26.250Z,21.000000
2022-10-31T15:05:30.092Z,17.000000
2022-10-31T15:10:31.843Z,15.000000
2022-10-31T15:15:34.309Z,17.666667
2022-10-31T15:20:17.413Z,19.000000
2022-10-31T15:25:19.734Z,17.666667
2022-10-31T15:30:22.375Z,17.000000
2022-10-31T15:35:27.218Z,15.666667
2022-10-31T15:40:28.847Z,15.000000
2022-10-31T15:45:33.458Z,15.666667
2022-10-31T15:50:16.413Z,16.000000
2022-10-31T15:55:20.364Z,17.333333
2022-10-31T16:00:24.265Z,18.000000
2022-10-31T16:05:26.924Z,12.666667
2022-10-31T16:10:29.640Z,10.000000
2022-10-31T16:15:32.573Z,12.000000
2022-10-31T16:20:36.136Z,13.000000
2022-10-31T16:25:18.635Z,11.666667
2022-10-31T16:30:21.748Z,11.000000
2022-10-31T16:35:26.421Z,11.000000
2022-10-31T16:40:28.311Z,11.000000
2022-10-31T16:45:31.398Z,11.666667
2022-10-31T16:50:35.759Z,12.000000
2022-10-31T16:55:17.867Z,10.666667
2022-10-31T17:00:21.205Z,10.000000
2022-10-31T17:05:23.652Z,12.666667
2022-10-31T17:10:27.396Z,14.000000
2022-10-31T17:15:30.689Z,13.333333
2022-10-31T17:20:34.694Z,13.000000
2022-10-31T17:25:36.020Z,13.666667
2022-10-31T17:30:20.762Z,14.000000
2022-10-31T17:35:22.982Z,13.285714
2022-10-31T17:40:26.287Z,13.000000
2022-10-31T17:45:29.109Z,12.333333
2022-10-31T17:50:31.962Z,12.000000
2022-10-31T17:55:37.662Z,12.000000
2022-10-31T18:00:17.621Z,12.000000
2022-10-31T18:05:21.549Z,12.000000
2022-10-31T18:10:25.093Z,12.000000
2022-10-31T18:15:28.301Z,10.000000
2022-10-31T18:20:32.213Z,9.000000
2022-10-31T18:25:35.762Z,9.666667
2022-10-31T18:30:17.011Z,10.000000
2022-10-31T18:35:20.038Z,9.266667
2022-10-31T18:40:23.105Z,9.000000
2022-10-31T18:45:46.498Z,9.666667
2022-10-31T18:50:30.207Z,10.000000
2022-10-31T18:55:33.162Z,10.666667
2022-10-31T19:00:16.164Z,11.000000
2022-10-31T19:05:19.008Z,12.333333
2022-10-31T19:10:22.814Z,13.000000
2022-10-31T19:15:26.412Z,12.333333
2022-10-31T19:20:30.353Z,12.000000
2022-10-31T19:25:34.162Z,16.666667
2022-10-31T19:30:17.830Z,19.000000
2022-10-31T19:35:21.848Z,16.066667
2022-10-31T19:40:24.223Z,15.000000
2022-10-31T19:45:27.513Z,14.333333
2022-10-31T19:50:30.951Z,14.000000
2022-10-31T19:55:35.266Z,15.333333
2022-10-31T20:00:17.559Z,16.000000
2022-10-31T20:05:22.091Z,15.266667
2022-10-31T20:10:24.837Z,15.000000
2022-10-31T20:15:27.779Z,13.000000
2022-10-31T20:20:31.636Z,12.000000
2022-10-31T20:25:34.455Z,13.333333
2022-10-31T20:30:17.487Z,14.000000
2022-10-31T20:35:22.333Z,14.000000
2022-10-31T20:40:24.036Z,14.000000
2022-10-31T20:45:27.911Z,12.000000
2022-10-31T20:50:30.295Z,11.000000
2022-10-31T20:55:33.487Z,15.000000
2022-10-31T21:00:16.548Z,17.000000
2022-10-31T21:05:19.816Z,15.666667
2022-10-31T21:10:23.695Z,15.000000
2022-10-31T21:15:25.835Z,13.666667
2022-10-31T21:20:28.743Z,13.000000
2022-10-31T21:25:32.218Z,13.666667
2022-10-31T21:30:35.248Z,14.000000
2022-10-31T21:35:19.410Z,13.333333
2022-10-31T21:40:21.842Z,13.000000
2022-10-31T21:45:25.687Z,12.285714
2022-10-31T21:50:29.743Z,12.000000
2022-10-31T21:55:32.962Z,14.666667
2022-10-31T22:00:15.873Z,16.000000
2022-10-31T22:05:19.029Z,16.000000
2022-10-31T22:10:22.493Z,16.000000
2022-10-31T22:15:25.394Z,11.333333
2022-10-31T22:20:29.790Z,9.000000
2022-10-31T22:25:34.192Z,11.666667
2022-10-31T22:30:17.000Z,13.000000
2022-10-31T22:35:20.449Z,13.000000
2022-10-31T22:40:23.692Z,13.000000
2022-10-31T22:45:27.808Z,13.000000
2022-10-31T22:50:29.162Z,13.000000
2022-10-31T22:55:31.851Z,11.666667
2022-10-31T23:00:35.686Z,11.000000
2022-10-31T23:05:20.667Z,12.333333
2022-10-31T23:10:23.778Z,13.000000
2022-10-31T23:15:27.227Z,12.333333
2022-10-31T23:20:31.244Z,12.000000
2022-10-31T23:25:33.184Z,12.000000
2022-10-31T23:30:16.397Z,12.000000
2022-10-31T23:35:20.697Z,12.666667
2022-10-31T23:40:22.465Z,13.000000
2022-10-31T23:45:25.892Z,11.666667
2022-10-31T23:50:28.418Z,11.000000
2022-10-31T23:55:31.108Z,8.333333
